Time;durP1;ratioP1;P1;durP2;ratioP2;P2;SDS_P1;SDS_P2;PMS_P1;PMS_P2;Temp;Humidity;BMP_temperature;BMP_pressure;BME280_temperature;BME280_humidity;BME280_pressure;Samples;Min_cycle;Max_cycle;Signal;HPM_P1;HPM_P2
2022/05/11 00:01:38;;;;;;;0.90;0.90;;;;;;;;;;1874458;75;26269;-49
2022/05/11 00:04:07;;;;;;;0.90;0.90;;;;;;;;;;1848384;77;26367;-44
2022/05/11 00:06:35;;;;;;;0.90;0.90;;;;;;;;;;1848865;77;26298;-46
2022/05/11 00:09:03;;;;;;;0.90;0.90;;;;;;;;;;1867815;76;26299;-45
2022/05/11 00:11:31;;;;;;;1.00;1.00;;;;;;;;;;1880787;76;26792;-43
2022/05/11 00:13:59;;;;;;;0.93;0.93;;;;;;;;;;1880393;76;26255;-42
2022/05/11 00:16:27;;;;;;;1.00;1.00;;;;;;;;;;1858294;75;26870;-47
2022/05/11 00:18:55;;;;;;;1.10;1.10;;;;;;;;;;1858445;76;26392;-46
2022/05/11 00:21:22;;;;;;;0.90;0.90;;;;;;;;;;1880527;76;26275;-45
2022/05/11 00:23:51;;;;;;;0.98;0.98;;;;;;;;;;1880490;76;26271;-46
2022/05/11 00:26:19;;;;;;;1.10;1.10;;;;;;;;;;1880513;76;26254;-43
2022/05/11 00:28:46;;;;;;;0.90;0.90;;;;;;;;;;1880302;76;26353;-44
2022/05/11 00:31:14;;;;;;;0.90;0.90;;;;;;;;;;1876325;76;26726;-44
2022/05/11 00:33:41;;;;;;;1.00;1.00;;;;;;;;;;1847598;75;26269;-45
2022/05/11 00:36:10;;;;;;;0.93;0.93;;;;;;;;;;1848665;77;26268;-47
2022/05/11 00:38:38;;;;;;;0.98;0.98;;;;;;;;;;1864531;75;26289;-44
2022/05/11 00:41:06;;;;;;;1.00;1.00;;;;;;;;;;1866194;77;26728;-45
2022/05/11 00:43:35;;;;;;;0.95;0.95;;;;;;;;;;1874127;74;26266;-41
2022/05/11 00:46:03;;;;;;;0.90;0.90;;;;;;;;;;1857209;75;26297;-45
2022/05/11 00:51:16;;;;;;;0.90;0.90;;;;;;;;;;1854309;76;26260;-42
2022/05/11 00:53:45;;;;;;;0.80;0.80;;;;;;;;;;1862915;75;26197;-45
2022/05/11 00:56:13;;;;;;;0.90;0.90;;;;;;;;;;1836891;78;26711;-45
2022/05/11 00:58:45;;;;;;;0.90;0.90;;;;;;;;;;1870469;75;26261;-46
2022/05/11 01:01:12;;;;;;;0.98;0.98;;;;;;;;;;1863919;75;26351;-45
2022/05/11 01:03:44;;;;;;;0.90;0.90;;;;;;;;;;1878753;76;26261;-49
2022/05/11 01:06:12;;;;;;;1.00;1.00;;;;;;;;;;1865824;76;26777;-46
2022/05/11 01:08:40;;;;;;;0.90;0.90;;;;;;;;;;1859856;76;26742;-43
2022/05/11 01:11:08;;;;;;;0.90;0.90;;;;;;;;;;1867782;77;26357;-43
2022/05/11 01:13:37;;;;;;;0.95;0.95;;;;;;;;;;1909121;75;26655;-44
2022/05/11 01:16:04;;;;;;;0.90;0.90;;;;;;;;;;1877802;75;26257;-46
2022/05/11 01:18:32;;;;;;;0.80;0.80;;;;;;;;;;1863664;76;26308;-47
2022/05/11 01:21:00;;;;;;;0.80;0.80;;;;;;;;;;1880242;76;26271;-43
2022/05/11 01:23:29;;;;;;;0.90;0.90;;;;;;;;;;1879677;75;26245;-43
2022/05/11 01:25:56;;;;;;;0.80;0.80;;;;;;;;;;1880481;76;26278;-43
2022/05/11 01:28:24;;;;;;;0.90;0.90;;;;;;;;;;1880260;76;26279;-46
2022/05/11 01:30:53;;;;;;;0.93;0.93;;;;;;;;;;1871076;76;26271;-44
2022/05/11 01:33:24;;;;;;;0.90;0.90;;;;;;;;;;1856874;76;26308;-45
2022/05/11 01:35:59;;;;;;;0.80;0.80;;;;;;;;;;1901294;75;26348;-45
2022/05/11 01:38:31;;;;;;;1.05;0.85;;;;;;;;;;1912634;75;26750;-45
2022/05/11 01:40:59;;;;;;;0.80;0.80;;;;;;;;;;1912568;75;26302;-42
2022/05/11 01:43:27;;;;;;;0.82;0.82;;;;;;;;;;1890006;75;26318;-44
2022/05/11 01:45:55;;;;;;;0.90;0.90;;;;;;;;;;1856408;75;26762;-44
2022/05/11 01:48:23;;;;;;;0.80;0.80;;;;;;;;;;1854761;77;26299;-43
2022/05/11 01:50:50;;;;;;;0.80;0.80;;;;;;;;;;1855124;77;26289;-43
2022/05/11 01:53:18;;;;;;;0.70;0.70;;;;;;;;;;1854849;77;26265;-46
2022/05/11 01:55:46;;;;;;;0.80;0.80;;;;;;;;;;1877406;76;26743;-47
2022/05/11 01:58:13;;;;;;;0.80;0.80;;;;;;;;;;1881150;75;26355;-45
2022/05/11 02:00:42;;;;;;;0.78;0.78;;;;;;;;;;1886315;76;26663;-48
2022/05/11 02:03:10;;;;;;;0.80;0.80;;;;;;;;;;1886619;76;26694;-43
2022/05/11 02:08:22;;;;;;;0.70;0.70;;;;;;;;;;1898170;74;26274;-44
2022/05/11 02:10:50;;;;;;;0.70;0.70;;;;;;;;;;1886912;74;26344;-43
2022/05/11 02:13:17;;;;;;;0.70;0.70;;;;;;;;;;1886746;76;26235;-43
2022/05/11 02:15:44;;;;;;;0.80;0.80;;;;;;;;;;1873683;76;26816;-47
2022/05/11 02:18:12;;;;;;;0.70;0.70;;;;;;;;;;1854875;77;26709;-43
2022/05/11 02:20:39;;;;;;;0.80;0.80;;;;;;;;;;1902218;74;26274;-47
2022/05/11 02:23:06;;;;;;;0.70;0.70;;;;;;;;;;1919457;75;26250;-45
2022/05/11 02:25:34;;;;;;;0.72;0.72;;;;;;;;;;1919691;75;26630;-47
2022/05/11 02:28:02;;;;;;;0.60;0.60;;;;;;;;;;1919666;74;26324;-45
2022/05/11 02:30:30;;;;;;;0.60;0.60;;;;;;;;;;1881727;75;26288;-45
2022/05/11 02:32:58;;;;;;;0.70;0.70;;;;;;;;;;1855119;77;26320;-48
2022/05/11 02:35:26;;;;;;;0.70;0.70;;;;;;;;;;1855186;77;26337;-47
2022/05/11 02:37:59;;;;;;;0.70;0.70;;;;;;;;;;1855037;77;26293;-47
2022/05/11 02:40:28;;;;;;;0.60;0.60;;;;;;;;;;1855231;77;26347;-45
2022/05/11 02:42:55;;;;;;;0.70;0.70;;;;;;;;;;1870357;75;26277;-43
2022/05/11 02:45:23;;;;;;;0.70;0.70;;;;;;;;;;1881727;75;26299;-43
2022/05/11 02:47:52;;;;;;;0.55;0.55;;;;;;;;;;1857574;77;26220;-42
2022/05/11 02:50:21;;;;;;;0.70;0.70;;;;;;;;;;1887611;76;26316;-47
2022/05/11 02:52:48;;;;;;;0.55;0.55;;;;;;;;;;1889691;75;26266;-43
2022/05/11 02:55:16;;;;;;;0.60;0.60;;;;;;;;;;1878708;74;26857;-45
2022/05/11 02:57:43;;;;;;;0.50;0.50;;;;;;;;;;1871410;76;26268;-42
2022/05/11 03:00:12;;;;;;;0.60;0.60;;;;;;;;;;1872313;74;26686;-45
2022/05/11 03:02:40;;;;;;;0.53;0.53;;;;;;;;;;1886994;76;26249;-44
2022/05/11 03:05:08;;;;;;;0.60;0.60;;;;;;;;;;1887878;76;26273;-42
2022/05/11 03:07:35;;;;;;;0.70;0.70;;;;;;;;;;1905118;74;27448;-45
2022/05/11 03:10:02;;;;;;;0.55;0.55;;;;;;;;;;1919214;75;26738;-46
2022/05/11 03:12:32;;;;;;;0.50;0.50;;;;;;;;;;1919834;75;26255;-44
2022/05/11 03:15:00;;;;;;;0.50;0.50;;;;;;;;;;1885182;75;26874;-48
2022/05/11 03:17:27;;;;;;;0.50;0.50;;;;;;;;;;1857699;76;26238;-45
2022/05/11 03:19:55;;;;;;;0.50;0.50;;;;;;;;;;1857588;76;26261;-46
2022/05/11 03:22:22;;;;;;;0.47;0.47;;;;;;;;;;1857772;77;26335;-43
2022/05/11 03:24:49;;;;;;;0.50;0.50;;;;;;;;;;1857731;77;26205;-46
2022/05/11 03:27:17;;;;;;;0.50;0.50;;;;;;;;;;1857932;76;26257;-46
2022/05/11 03:29:44;;;;;;;0.60;0.60;;;;;;;;;;1874998;76;26708;-47
2022/05/11 03:34:57;;;;;;;0.40;0.40;;;;;;;;;;1857782;77;26308;-45
2022/05/11 03:37:24;;;;;;;0.50;0.50;;;;;;;;;;1857869;77;26271;-48
2022/05/11 03:39:52;;;;;;;0.55;0.55;;;;;;;;;;1874760;74;26220;-45
2022/05/11 03:42:22;;;;;;;0.53;0.53;;;;;;;;;;1857880;76;26300;-44
2022/05/11 03:44:49;;;;;;;0.40;0.40;;;;;;;;;;1879859;74;26782;-49
2022/05/11 03:47:16;;;;;;;0.60;0.60;;;;;;;;;;1864639;77;26260;-49
2022/05/11 03:49:43;;;;;;;0.50;0.50;;;;;;;;;;1872519;75;26249;-45
2022/05/11 03:52:13;;;;;;;0.50;0.50;;;;;;;;;;1875486;74;26277;-46
2022/05/11 03:54:40;;;;;;;0.40;0.40;;;;;;;;;;1864257;76;26420;-43
2022/05/11 03:57:07;;;;;;;0.40;0.40;;;;;;;;;;1868765;75;26290;-46
2022/05/11 03:59:34;;;;;;;0.50;0.50;;;;;;;;;;1912231;74;26320;-44
2022/05/11 04:02:01;;;;;;;0.57;0.57;;;;;;;;;;1923333;74;26278;-48
2022/05/11 04:04:29;;;;;;;0.50;0.50;;;;;;;;;;1864328;77;26321;-45
2022/05/11 04:06:56;;;;;;;0.50;0.50;;;;;;;;;;1864004;77;26304;-44
2022/05/11 04:09:23;;;;;;;0.50;0.50;;;;;;;;;;1887761;75;26344;-44
2022/05/11 04:11:51;;;;;;;0.40;0.40;;;;;;;;;;1895979;75;26242;-47
2022/05/11 04:14:18;;;;;;;0.50;0.50;;;;;;;;;;1880620;74;26272;-46
2022/05/11 04:16:45;;;;;;;0.60;0.60;;;;;;;;;;1890405;75;26351;-45
2022/05/11 04:19:13;;;;;;;0.60;0.60;;;;;;;;;;1895858;75;26301;-44
2022/05/11 04:21:40;;;;;;;0.57;0.57;;;;;;;;;;1896012;75;26266;-47
2022/05/11 04:24:07;;;;;;;0.40;0.40;;;;;;;;;;1895769;75;26282;-42
2022/05/11 04:26:35;;;;;;;0.40;0.40;;;;;;;;;;1866844;74;26907;-46
2022/05/11 04:29:03;;;;;;;0.47;0.47;;;;;;;;;;1876622;75;26265;-46
2022/05/11 04:31:30;;;;;;;0.42;0.42;;;;;;;;;;1895845;75;26273;-45
2022/05/11 04:33:57;;;;;;;0.50;0.50;;;;;;;;;;1890821;74;26257;-44
2022/05/11 04:36:25;;;;;;;0.60;0.60;;;;;;;;;;1871421;74;26744;-49
2022/05/11 04:38:53;;;;;;;0.50;0.50;;;;;;;;;;1863915;77;26743;-43
2022/05/11 04:41:20;;;;;;;0.50;0.50;;;;;;;;;;1863812;77;26370;-45
2022/05/11 04:43:48;;;;;;;0.50;0.50;;;;;;;;;;1874052;75;26336;-45
2022/05/11 04:46:15;;;;;;;0.50;0.50;;;;;;;;;;1865829;76;26643;-44
2022/05/11 04:48:44;;;;;;;0.55;0.40;;;;;;;;;;1855664;74;26257;-45
2022/05/11 04:51:12;;;;;;;0.42;0.42;;;;;;;;;;1882222;76;26275;-44
2022/05/11 04:53:39;;;;;;;0.40;0.40;;;;;;;;;;1886778;76;26844;-42
2022/05/11 04:56:06;;;;;;;0.60;0.60;;;;;;;;;;1886638;76;26278;-46
2022/05/11 04:58:34;;;;;;;0.50;0.50;;;;;;;;;;1884901;74;26298;-44
2022/05/11 05:01:01;;;;;;;0.50;0.50;;;;;;;;;;1923163;74;26869;-44
2022/05/11 05:03:29;;;;;;;0.40;0.40;;;;;;;;;;1923021;74;26262;-43
2022/05/11 05:05:56;;;;;;;0.50;0.50;;;;;;;;;;1922991;74;26266;-46
2022/05/11 05:08:24;;;;;;;0.40;0.40;;;;;;;;;;1922656;74;26207;-48
2022/05/11 05:10:51;;;;;;;0.40;0.40;;;;;;;;;;1921063;74;26343;-45
2022/05/11 05:13:18;;;;;;;0.57;0.57;;;;;;;;;;1919859;75;26259;-43
2022/05/11 05:15:46;;;;;;;0.65;0.65;;;;;;;;;;1905835;75;26279;-44
2022/05/11 05:18:13;;;;;;;0.50;0.50;;;;;;;;;;1885241;76;26813;-44
2022/05/11 05:20:40;;;;;;;0.50;0.50;;;;;;;;;;1876691;75;26869;-46
2022/05/11 05:23:08;;;;;;;0.60;0.60;;;;;;;;;;1857732;77;26365;-45
2022/05/11 05:25:35;;;;;;;0.60;0.60;;;;;;;;;;1857783;77;26237;-47
2022/05/11 05:31:06;;;;;;;0.50;0.50;;;;;;;;;;1880407;74;26254;-44
2022/05/11 05:33:34;;;;;;;0.53;0.53;;;;;;;;;;1889252;75;26823;-44
2022/05/11 05:36:02;;;;;;;0.50;0.50;;;;;;;;;;1854869;77;26351;-44
2022/05/11 05:38:29;;;;;;;0.72;0.72;;;;;;;;;;1855059;77;26253;-44
2022/05/11 05:40:56;;;;;;;0.60;0.60;;;;;;;;;;1855269;77;26257;-43
2022/05/11 05:43:25;;;;;;;0.50;0.50;;;;;;;;;;1865937;74;26257;-43
2022/05/11 05:45:53;;;;;;;0.55;0.55;;;;;;;;;;1858314;76;26720;-45
2022/05/11 05:48:21;;;;;;;0.47;0.47;;;;;;;;;;1863777;76;26346;-45
2022/05/11 05:50:49;;;;;;;0.60;0.60;;;;;;;;;;1886532;75;26299;-42
2022/05/11 05:53:21;;;;;;;0.50;0.50;;;;;;;;;;1896057;75;26238;-43
2022/05/11 05:55:49;;;;;;;0.50;0.50;;;;;;;;;;1893610;75;26369;-44
2022/05/11 05:58:17;;;;;;;0.50;0.50;;;;;;;;;;1895860;75;26324;-44
2022/05/11 06:00:45;;;;;;;0.50;0.50;;;;;;;;;;1865139;75;26711;-45
2022/05/11 06:03:14;;;;;;;0.50;0.50;;;;;;;;;;1864167;77;26831;-45
2022/05/11 06:05:41;;;;;;;0.50;0.50;;;;;;;;;;1863244;76;26343;-44
2022/05/11 06:08:08;;;;;;;0.65;0.65;;;;;;;;;;1871031;75;26277;-45
2022/05/11 06:10:39;;;;;;;0.60;0.60;;;;;;;;;;1896043;75;26285;-43
2022/05/11 06:13:05;;;;;;;0.40;0.40;;;;;;;;;;1895774;75;26315;-44
2022/05/11 06:15:32;;;;;;;0.50;0.50;;;;;;;;;;1885589;75;26272;-43
2022/05/11 06:18:00;;;;;;;0.60;0.60;;;;;;;;;;1893883;74;26274;-44
2022/05/11 06:20:27;;;;;;;0.82;0.40;;;;;;;;;;1929553;74;26266;-45
2022/05/11 06:22:55;;;;;;;0.60;0.60;;;;;;;;;;1929339;74;26250;-45
2022/05/11 06:25:23;;;;;;;0.60;0.60;;;;;;;;;;1929254;74;26281;-45
2022/05/11 06:27:50;;;;;;;0.40;0.40;;;;;;;;;;1929177;74;26250;-44
2022/05/11 06:30:18;;;;;;;0.60;0.60;;;;;;;;;;1876371;74;26296;-45
2022/05/11 06:32:45;;;;;;;0.60;0.60;;;;;;;;;;1864203;77;26302;-44
2022/05/11 06:35:13;;;;;;;0.50;0.50;;;;;;;;;;1863910;77;26353;-49
2022/05/11 06:37:41;;;;;;;0.60;0.60;;;;;;;;;;1864052;77;26229;-45
2022/05/11 06:40:09;;;;;;;0.50;0.50;;;;;;;;;;1884227;74;26293;-45
2022/05/11 06:42:37;;;;;;;0.60;0.60;;;;;;;;;;1927850;74;26760;-45
2022/05/11 06:45:08;;;;;;;0.70;0.70;;;;;;;;;;1913788;74;26844;-48
2022/05/11 06:47:36;;;;;;;0.60;0.60;;;;;;;;;;1859859;76;26877;-46
2022/05/11 06:50:04;;;;;;;0.60;0.60;;;;;;;;;;1868274;76;26347;-43
2022/05/11 06:52:32;;;;;;;0.45;0.45;;;;;;;;;;1863622;75;26751;-44
2022/05/11 07:00:31;;;;;;;0.50;0.50;;;;;;;;;;1903030;74;26705;-44
2022/05/11 07:02:59;;;;;;;0.50;0.50;;;;;;;;;;1838920;77;26875;-42
2022/05/11 07:05:27;;;;;;;0.68;0.68;;;;;;;;;;1825910;78;26306;-48
2022/05/11 07:07:55;;;;;;;0.65;0.65;;;;;;;;;;1808087;78;26303;-44
2022/05/11 07:10:22;;;;;;;0.55;0.55;;;;;;;;;;1830581;78;26320;-44
2022/05/11 07:12:49;;;;;;;0.60;0.60;;;;;;;;;;1830672;78;26337;-44
2022/05/11 07:15:18;;;;;;;0.37;0.37;;;;;;;;;;1804225;77;26318;-45
2022/05/11 07:17:50;;;;;;;0.65;0.65;;;;;;;;;;1800892;79;26353;-49
2022/05/11 07:20:19;;;;;;;0.50;0.50;;;;;;;;;;1829621;78;26683;-45
2022/05/11 07:22:47;;;;;;;0.60;0.60;;;;;;;;;;1830748;78;26233;-45
2022/05/11 07:25:16;;;;;;;0.57;0.57;;;;;;;;;;1820038;77;26348;-44
2022/05/11 07:27:44;;;;;;;0.50;0.50;;;;;;;;;;1800928;79;26298;-44
2022/05/11 07:30:13;;;;;;;2.17;0.93;;;;;;;;;;1813070;77;26606;-44
2022/05/11 07:32:41;;;;;;;1.30;0.80;;;;;;;;;;1801680;79;26310;-47
2022/05/11 07:35:09;;;;;;;1.02;0.70;;;;;;;;;;1800902;79;26291;-49
2022/05/11 07:37:36;;;;;;;2.55;0.70;;;;;;;;;;1825465;78;26806;-48
2022/05/11 07:40:05;;;;;;;2.60;0.88;;;;;;;;;;1830555;78;26693;-46
2022/05/11 07:42:32;;;;;;;5.53;1.15;;;;;;;;;;1829742;78;26790;-43
2022/05/11 07:44:59;;;;;;;6.25;1.35;;;;;;;;;;1826424;78;26596;-44
2022/05/11 07:47:27;;;;;;;9.75;1.15;;;;;;;;;;1830706;77;26323;-43
2022/05/11 07:49:55;;;;;;;6.87;1.20;;;;;;;;;;1830319;78;26287;-45
2022/05/11 07:52:22;;;;;;;6.50;1.00;;;;;;;;;;1830568;78;26288;-43
2022/05/11 07:54:49;;;;;;;3.67;1.00;;;;;;;;;;1830571;78;26328;-46
2022/05/11 08:00:06;;;;;;;9.18;1.87;;;;;;;;;;1852285;77;26675;-46
2022/05/11 08:02:34;;;;;;;1.37;1.00;;;;;;;;;;1867763;77;26626;-48
2022/05/11 08:05:03;;;;;;;7.20;0.95;;;;;;;;;;1867913;77;26300;-44
2022/05/11 08:07:32;;;;;;;1.62;0.85;;;;;;;;;;1868008;77;26330;-45
2022/05/11 08:10:00;;;;;;;3.85;0.78;;;;;;;;;;1829884;77;26594;-44
2022/05/11 08:12:28;;;;;;;5.53;0.90;;;;;;;;;;1802877;77;26851;-44
2022/05/11 08:14:56;;;;;;;6.03;0.90;;;;;;;;;;1800671;78;26286;-45
2022/05/11 08:17:31;;;;;;;2.27;0.80;;;;;;;;;;1800952;79;26545;-44
2022/05/11 08:19:59;;;;;;;4.58;0.65;;;;;;;;;;1800736;79;26702;-45
2022/05/11 08:22:27;;;;;;;1.25;0.70;;;;;;;;;;1803132;77;26373;-46
2022/05/11 08:24:56;;;;;;;1.77;0.90;;;;;;;;;;1800674;79;26293;-48
2022/05/11 08:27:28;;;;;;;2.17;0.70;;;;;;;;;;1828936;78;26375;-44
2022/05/11 08:35:28;;;;;;;3.62;0.85;;;;;;;;;;1800762;79;26303;-45
2022/05/11 08:37:57;;;;;;;1.02;0.70;;;;;;;;;;1800640;79;26381;-45
2022/05/11 08:40:29;;;;;;;0.70;0.70;;;;;;;;;;1829884;78;26266;-44
2022/05/11 08:42:57;;;;;;;1.67;0.70;;;;;;;;;;1828100;78;26584;-43
2022/05/11 08:45:26;;;;;;;2.70;0.80;;;;;;;;;;1821276;77;26282;-44
2022/05/11 08:47:53;;;;;;;0.80;0.80;;;;;;;;;;1802602;79;26325;-46
2022/05/11 08:50:22;;;;;;;4.28;1.20;;;;;;;;;;1806691;79;26734;-46
2022/05/11 08:52:54;;;;;;;4.42;0.65;;;;;;;;;;1806535;78;26606;-45
2022/05/11 08:55:34;;;;;;;2.20;0.80;;;;;;;;;;1807521;76;26291;-44
2022/05/11 08:58:05;;;;;;;1.27;0.75;;;;;;;;;;1818741;78;26323;-45
2022/05/11 09:00:32;;;;;;;1.32;1.00;;;;;;;;;;1836658;77;26782;-44
2022/05/11 09:03:02;;;;;;;1.22;0.88;;;;;;;;;;1836815;78;26265;-46
2022/05/11 09:05:31;;;;;;;1.17;0.93;;;;;;;;;;1836983;77;26293;-44
2022/05/11 09:07:59;;;;;;;2.27;0.88;;;;;;;;;;1817976;76;26279;-46
2022/05/11 09:10:31;;;;;;;1.40;1.10;;;;;;;;;;1871832;76;26331;-44
2022/05/11 09:13:02;;;;;;;2.83;1.00;;;;;;;;;;1871663;76;26228;-46
2022/05/11 09:15:47;;;;;;;1.10;1.00;;;;;;;;;;1861100;76;26296;-44
2022/05/11 09:18:15;;;;;;;2.25;1.10;;;;;;;;;;1854404;77;26428;-45
2022/05/11 09:20:47;;;;;;;1.12;1.00;;;;;;;;;;1867984;77;27213;-44
2022/05/11 09:23:15;;;;;;;3.42;1.20;;;;;;;;;;1867962;77;26756;-45
2022/05/11 09:25:55;;;;;;;3.02;1.15;;;;;;;;;;1868011;77;26342;-47
2022/05/11 09:28:24;;;;;;;0.90;0.90;;;;;;;;;;1863038;77;26272;-45
2022/05/11 09:30:59;;;;;;;3.00;1.20;;;;;;;;;;1836958;76;26245;-44
2022/05/11 09:33:28;;;;;;;1.98;1.00;;;;;;;;;;1837248;78;26268;-44
2022/05/11 09:35:55;;;;;;;1.45;1.00;;;;;;;;;;1837060;77;26534;-45
2022/05/11 09:38:25;;;;;;;2.00;0.95;;;;;;;;;;1836952;78;26331;-43
2022/05/11 09:41:00;;;;;;;1.10;1.00;;;;;;;;;;1833677;78;26738;-44
2022/05/11 09:43:34;;;;;;;1.82;1.12;;;;;;;;;;1821205;76;26213;-47
2022/05/11 09:46:03;;;;;;;1.82;1.17;;;;;;;;;;1853329;76;26756;-46
2022/05/11 09:48:32;;;;;;;2.27;1.47;;;;;;;;;;1827209;77;26750;-44
2022/05/11 09:51:16;;;;;;;3.45;1.20;;;;;;;;;;1823530;78;27200;-45
2022/05/11 09:53:51;;;;;;;1.12;0.95;;;;;;;;;;1830068;78;26280;-47
2022/05/11 09:56:20;;;;;;;1.25;1.05;;;;;;;;;;1822706;78;26351;-49
2022/05/11 09:58:48;;;;;;;1.17;1.00;;;;;;;;;;1821058;78;26872;-46
2022/05/11 10:01:19;;;;;;;2.27;1.15;;;;;;;;;;1835921;78;26270;-45
2022/05/11 10:03:48;;;;;;;1.15;1.00;;;;;;;;;;1813496;78;26720;-47
2022/05/11 10:06:18;;;;;;;1.15;1.00;;;;;;;;;;1804753;79;26275;-47
2022/05/11 10:08:48;;;;;;;1.40;0.90;;;;;;;;;;1817829;78;26300;-44
2022/05/11 10:11:18;;;;;;;0.90;0.90;;;;;;;;;;1830704;78;26783;-46
2022/05/11 10:13:56;;;;;;;0.95;0.88;;;;;;;;;;1830620;78;26355;-44
2022/05/11 10:22:19;;;;;;;1.27;0.90;;;;;;;;;;1835860;78;26439;-44
2022/05/11 10:24:50;;;;;;;2.55;0.90;;;;;;;;;;1834203;78;26278;-44
2022/05/11 10:27:34;;;;;;;1.00;0.90;;;;;;;;;;1805693;79;26299;-46
2022/05/11 10:30:06;;;;;;;1.20;0.93;;;;;;;;;;1804235;78;26299;-44
2022/05/11 10:32:37;;;;;;;1.82;0.82;;;;;;;;;;1805598;79;26292;-43
2022/05/11 10:35:21;;;;;;;0.88;0.88;;;;;;;;;;1805578;79;26287;-43
2022/05/11 10:37:50;;;;;;;1.47;0.80;;;;;;;;;;1805307;77;26830;-46
2022/05/11 10:40:19;;;;;;;0.80;0.80;;;;;;;;;;1804575;79;26303;-46
2022/05/11 10:42:51;;;;;;;0.80;0.80;;;;;;;;;;1805717;78;26320;-45
2022/05/11 10:45:20;;;;;;;1.10;0.90;;;;;;;;;;1813670;78;26721;-45
2022/05/11 10:48:01;;;;;;;0.70;0.70;;;;;;;;;;1836427;77;26308;-45
2022/05/11 10:50:48;;;;;;;0.70;0.70;;;;;;;;;;1852428;77;26328;-45
2022/05/11 10:53:33;;;;;;;0.82;0.80;;;;;;;;;;1751821;80;26834;-45
2022/05/11 10:56:02;;;;;;;0.60;0.60;;;;;;;;;;1734364;81;26769;-44
2022/05/11 10:58:31;;;;;;;1.25;0.90;;;;;;;;;;1768514;77;26293;-43
2022/05/11 11:01:09;;;;;;;0.60;0.60;;;;;;;;;;1860488;77;26249;-46
2022/05/11 11:03:50;;;;;;;0.90;0.70;;;;;;;;;;1838148;77;26320;-44
2022/05/11 11:09:15;;;;;;;0.68;0.68;;;;;;;;;;1828126;77;26313;-45
2022/05/11 11:11:53;;;;;;;0.60;0.60;;;;;;;;;;1835985;78;26313;-46
2022/05/11 11:14:31;;;;;;;0.60;0.60;;;;;;;;;;1834116;78;26281;-45
2022/05/11 11:17:00;;;;;;;0.60;0.60;;;;;;;;;;1835869;78;26689;-46
2022/05/11 11:19:28;;;;;;;0.55;0.55;;;;;;;;;;1835815;78;26701;-44
2022/05/11 11:21:56;;;;;;;0.60;0.60;;;;;;;;;;1835868;78;26289;-45
2022/05/11 11:24:25;;;;;;;0.60;0.60;;;;;;;;;;1832900;78;26915;-46
2022/05/11 11:26:57;;;;;;;0.62;0.62;;;;;;;;;;1817778;77;26260;-50
2022/05/11 11:29:26;;;;;;;0.50;0.50;;;;;;;;;;1827859;78;26367;-46
2022/05/11 11:32:00;;;;;;;0.60;0.60;;;;;;;;;;1832521;77;26709;-46
2022/05/11 11:34:38;;;;;;;0.50;0.50;;;;;;;;;;1852201;77;26225;-44
2022/05/11 11:37:16;;;;;;;0.50;0.50;;;;;;;;;;1833726;77;26303;-45
2022/05/11 11:39:48;;;;;;;0.60;0.60;;;;;;;;;;1800745;79;26292;-46
2022/05/11 11:42:28;;;;;;;0.60;0.60;;;;;;;;;;1805536;79;26370;-44
2022/05/11 11:44:56;;;;;;;0.90;0.70;;;;;;;;;;1812233;77;26366;-45
2022/05/11 11:47:27;;;;;;;0.78;0.78;;;;;;;;;;1828010;78;26736;-46
2022/05/11 11:49:57;;;;;;;0.62;0.50;;;;;;;;;;1811564;79;26332;-46
2022/05/11 11:52:44;;;;;;;0.50;0.50;;;;;;;;;;1814491;79;26367;-46
2022/05/11 11:55:13;;;;;;;0.60;0.60;;;;;;;;;;1814473;79;26381;-44
2022/05/11 11:57:41;;;;;;;1.30;0.60;;;;;;;;;;1819583;78;26273;-44
2022/05/11 12:00:22;;;;;;;0.50;0.50;;;;;;;;;;1856744;77;26386;-46
2022/05/11 12:02:49;;;;;;;0.60;0.60;;;;;;;;;;1861620;77;26912;-46
2022/05/11 12:05:27;;;;;;;0.53;0.53;;;;;;;;;;1861701;77;26842;-44
2022/05/11 12:16:44;;;;;;;0.45;0.45;;;;;;;;;;1822223;78;26792;-48
2022/05/11 12:19:13;;;;;;;0.40;0.40;;;;;;;;;;1816604;78;26770;-50
2022/05/11 12:21:42;;;;;;;0.47;0.47;;;;;;;;;;1836899;77;26850;-44
2022/05/11 12:24:10;;;;;;;0.50;0.50;;;;;;;;;;1836895;78;26288;-45
2022/05/11 12:26:39;;;;;;;0.55;0.55;;;;;;;;;;1835232;78;26316;-46
2022/05/11 12:31:40;;;;;;;0.50;0.50;;;;;;;;;;1791471;79;26750;-45
2022/05/11 12:34:07;;;;;;;0.30;0.30;;;;;;;;;;1814374;78;26799;-44
2022/05/11 12:36:35;;;;;;;0.40;0.40;;;;;;;;;;1814502;79;26295;-46
2022/05/11 12:39:02;;;;;;;0.47;0.47;;;;;;;;;;1814198;78;26286;-44
2022/05/11 12:41:30;;;;;;;0.40;0.40;;;;;;;;;;1814283;79;26743;-46
2022/05/11 12:44:01;;;;;;;0.50;0.50;;;;;;;;;;1831903;77;26875;-47
2022/05/11 12:46:29;;;;;;;0.47;0.47;;;;;;;;;;1820868;78;26381;-46
2022/05/11 12:49:04;;;;;;;0.55;0.55;;;;;;;;;;1836741;78;26288;-45
2022/05/11 12:51:32;;;;;;;0.47;0.47;;;;;;;;;;1835617;78;26322;-48
2022/05/11 12:54:01;;;;;;;0.50;0.50;;;;;;;;;;1835844;78;26823;-45
2022/05/11 12:56:31;;;;;;;0.50;0.50;;;;;;;;;;1835814;77;26316;-46
2022/05/11 12:59:06;;;;;;;0.42;0.42;;;;;;;;;;1828201;78;26248;-44
2022/05/11 13:01:34;;;;;;;0.45;0.45;;;;;;;;;;1802200;79;27274;-45
2022/05/11 13:04:02;;;;;;;0.50;0.50;;;;;;;;;;1805805;79;26365;-44
2022/05/11 13:06:34;;;;;;;0.50;0.50;;;;;;;;;;1805780;79;26325;-49
2022/05/11 13:09:18;;;;;;;0.80;0.80;;;;;;;;;;1820336;78;26716;-46
2022/05/11 13:11:46;;;;;;;0.50;0.50;;;;;;;;;;1830562;78;26362;-46
2022/05/11 13:14:20;;;;;;;0.60;0.60;;;;;;;;;;1830197;78;26277;-43
2022/05/11 13:16:49;;;;;;;0.60;0.60;;;;;;;;;;1830485;78;26280;-45
2022/05/11 13:19:27;;;;;;;0.55;0.55;;;;;;;;;;1826854;78;26318;-44
2022/05/11 13:21:56;;;;;;;0.50;0.50;;;;;;;;;;1805420;79;26600;-44
2022/05/11 13:24:37;;;;;;;0.40;0.40;;;;;;;;;;1805749;79;26295;-43
2022/05/11 13:27:06;;;;;;;0.50;0.50;;;;;;;;;;1804883;79;26883;-44
2022/05/11 13:29:34;;;;;;;0.40;0.40;;;;;;;;;;1805319;77;26323;-47
2022/05/11 13:32:06;;;;;;;0.30;0.30;;;;;;;;;;1805324;79;26771;-45
2022/05/11 13:34:34;;;;;;;0.50;0.50;;;;;;;;;;1805465;79;26350;-46
2022/05/11 13:37:03;;;;;;;0.47;0.47;;;;;;;;;;1806021;78;26677;-46
2022/05/11 13:39:32;;;;;;;0.50;0.50;;;;;;;;;;1824935;77;26349;-46
2022/05/11 13:42:01;;;;;;;0.55;0.55;;;;;;;;;;1809895;77;26241;-46
2022/05/11 13:44:33;;;;;;;0.45;0.45;;;;;;;;;;1813004;77;26281;-46
2022/05/11 13:49:49;;;;;;;0.40;0.40;;;;;;;;;;1806733;79;26894;-44
2022/05/11 13:52:33;;;;;;;0.40;0.40;;;;;;;;;;1789878;79;26434;-45
2022/05/11 13:55:01;;;;;;;0.40;0.40;;;;;;;;;;1790051;79;26308;-45
2022/05/11 13:57:30;;;;;;;0.40;0.40;;;;;;;;;;1805759;79;26676;-44
2022/05/11 13:59:59;;;;;;;0.50;0.50;;;;;;;;;;1821727;78;26303;-45
2022/05/11 14:02:28;;;;;;;0.37;0.37;;;;;;;;;;1813621;77;26346;-45
2022/05/11 14:04:55;;;;;;;0.60;0.60;;;;;;;;;;1828745;78;26315;-45
2022/05/11 14:07:24;;;;;;;0.42;0.42;;;;;;;;;;1830623;78;26273;-45
2022/05/11 14:09:52;;;;;;;0.47;0.47;;;;;;;;;;1806866;78;26382;-48
2022/05/11 14:12:19;;;;;;;0.60;0.60;;;;;;;;;;1805363;79;26248;-44
2022/05/11 14:14:47;;;;;;;0.57;0.57;;;;;;;;;;1805692;77;26685;-45
2022/05/11 14:17:16;;;;;;;0.40;0.40;;;;;;;;;;1807331;78;26306;-51
2022/05/11 14:19:44;;;;;;;0.47;0.47;;;;;;;;;;1824715;78;26871;-47
2022/05/11 14:22:11;;;;;;;0.40;0.40;;;;;;;;;;1791970;78;26374;-44
2022/05/11 14:24:40;;;;;;;0.40;0.40;;;;;;;;;;1816459;78;26367;-46
2022/05/11 14:27:08;;;;;;;0.40;0.40;;;;;;;;;;1806273;78;26331;-45
2022/05/11 14:29:35;;;;;;;0.40;0.40;;;;;;;;;;1809776;78;26276;-44
2022/05/11 14:32:04;;;;;;;0.40;0.40;;;;;;;;;;1793839;78;26952;-44
2022/05/11 14:34:31;;;;;;;0.40;0.40;;;;;;;;;;1814327;78;26854;-44
2022/05/11 14:36:58;;;;;;;0.47;0.47;;;;;;;;;;1823408;77;26676;-44
2022/05/11 14:39:26;;;;;;;0.50;0.50;;;;;;;;;;1816783;78;26829;-45
2022/05/11 14:41:55;;;;;;;0.30;0.30;;;;;;;;;;1805525;77;26276;-44
2022/05/11 14:44:22;;;;;;;0.40;0.40;;;;;;;;;;1824479;78;26350;-46
2022/05/11 14:46:50;;;;;;;0.40;0.40;;;;;;;;;;1835443;78;26281;-45
2022/05/11 14:49:18;;;;;;;0.60;0.60;;;;;;;;;;1808521;77;26856;-47
2022/05/11 14:51:45;;;;;;;0.35;0.35;;;;;;;;;;1819316;77;26307;-44
2022/05/11 14:54:13;;;;;;;0.60;0.60;;;;;;;;;;1816644;78;26276;-46
2022/05/11 14:56:40;;;;;;;0.50;0.50;;;;;;;;;;1831676;78;26296;-45
2022/05/11 15:01:56;;;;;;;0.50;0.50;;;;;;;;;;1830412;78;26792;-46
2022/05/11 15:04:27;;;;;;;0.40;0.40;;;;;;;;;;1813776;78;26665;-46
2022/05/11 15:06:55;;;;;;;0.50;0.40;;;;;;;;;;1805678;79;26736;-46
2022/05/11 15:09:23;;;;;;;0.50;0.50;;;;;;;;;;1838125;77;26321;-46
2022/05/11 15:14:36;;;;;;;0.42;0.42;;;;;;;;;;1830505;78;26308;-45
2022/05/11 15:17:05;;;;;;;0.50;0.50;;;;;;;;;;1806775;78;26688;-48
2022/05/11 15:19:33;;;;;;;0.60;0.60;;;;;;;;;;1835485;78;26350;-44
2022/05/11 15:22:00;;;;;;;0.40;0.40;;;;;;;;;;1833537;77;26284;-46
2022/05/11 15:24:29;;;;;;;0.60;0.60;;;;;;;;;;1805474;79;26369;-46
2022/05/11 15:26:57;;;;;;;0.60;0.60;;;;;;;;;;1835576;78;26343;-45
2022/05/11 15:29:25;;;;;;;0.40;0.40;;;;;;;;;;1832846;78;26406;-46
2022/05/11 15:31:52;;;;;;;0.40;0.40;;;;;;;;;;1805775;79;26286;-47
2022/05/11 15:34:21;;;;;;;0.50;0.50;;;;;;;;;;1805643;79;26363;-47
2022/05/11 15:36:49;;;;;;;0.40;0.40;;;;;;;;;;1805824;79;26427;-46
2022/05/11 15:39:16;;;;;;;0.40;0.40;;;;;;;;;;1805616;79;26383;-46
2022/05/11 15:41:43;;;;;;;0.50;0.50;;;;;;;;;;1805689;79;26313;-46
2022/05/11 15:44:11;;;;;;;0.50;0.50;;;;;;;;;;1813771;77;26296;-47
2022/05/11 15:46:39;;;;;;;0.50;0.50;;;;;;;;;;1809285;78;26244;-47
2022/05/11 15:49:07;;;;;;;0.50;0.50;;;;;;;;;;1806438;77;26660;-46